Time;durP1;ratioP1;P1;durP2;ratioP2;P2;SDS_P1;SDS_P2;PMS_P1;PMS_P2;Temp;Humidity;BMP_temperature;BMP_pressure;BME280_temperature;BME280_humidity;BME280_pressure;Samples;Min_cycle;Max_cycle;Signal;HPM_P1;HPM_P2
2021/05/29 00:01:25;;;;;;;1999.90;999.90;;;;;;;13.11;93.72;95786.94;5070708;28;20315;-59
2021/05/29 00:03:52;;;;;;;1999.90;999.90;;;;;;;13.09;93.62;95791.69;5070690;28;20676;-60
2021/05/29 00:06:19;;;;;;;1999.90;999.90;;;;;;;13.14;93.09;95794.97;5071018;28;20193;-60
2021/05/29 00:08:46;;;;;;;1999.90;999.90;;;;;;;13.08;93.53;95792.75;5070610;28;20690;-61
2021/05/29 00:11:13;;;;;;;1999.90;999.90;;;;;;;13.14;93.14;95792.38;5070735;28;20283;-60
2021/05/29 00:13:40;;;;;;;1999.90;999.90;;;;;;;13.04;93.37;95791.84;5070507;28;20196;-61
2021/05/29 00:16:09;;;;;;;1999.90;999.90;;;;;;;13.01;93.91;95787.97;5070402;28;20204;-59
2021/05/29 00:18:37;;;;;;;1999.90;999.90;;;;;;;12.98;94.27;95791.19;5070444;28;20226;-61
2021/05/29 00:21:05;;;;;;;1999.90;999.90;;;;;;;13.00;94.42;95786.44;5070285;28;20249;-62
2021/05/29 00:23:31;;;;;;;1999.90;999.90;;;;;;;12.94;94.62;95783.22;5070305;28;20243;-60
2021/05/29 00:25:58;;;;;;;1999.90;999.90;;;;;;;12.85;95.00;95781.63;5070287;28;20634;-60
2021/05/29 00:28:25;;;;;;;1999.90;999.90;;;;;;;12.84;94.85;95788.69;5070356;28;20220;-61
2021/05/29 00:30:52;;;;;;;1999.90;999.90;;;;;;;12.86;94.66;95786.53;5070095;28;20196;-59
2021/05/29 00:33:19;;;;;;;1999.90;999.90;;;;;;;12.81;94.13;95786.66;5070402;28;20664;-62
2021/05/29 00:35:46;;;;;;;1999.90;999.90;;;;;;;12.69;94.72;95788.28;5070195;28;20226;-60
2021/05/29 00:38:13;;;;;;;1999.90;999.90;;;;;;;12.63;94.96;95789.47;5070133;28;20223;-61
2021/05/29 00:40:40;;;;;;;1999.90;999.90;;;;;;;12.51;95.34;95790.78;5070406;28;20211;-60
2021/05/29 00:43:07;;;;;;;1999.90;999.90;;;;;;;12.42;95.60;95786.59;5070195;28;20680;-60
2021/05/29 00:45:34;;;;;;;1999.90;999.90;;;;;;;12.34;96.27;95782.88;5069968;28;20200;-61
2021/05/29 00:48:02;;;;;;;1999.90;999.90;;;;;;;12.29;96.39;95779.59;5069982;28;20662;-59
2021/05/29 00:50:31;;;;;;;1999.90;999.90;;;;;;;12.25;96.22;95781.28;5070411;28;20202;-59
2021/05/29 00:52:59;;;;;;;1999.90;999.90;;;;;;;12.19;96.15;95788.44;5070154;28;20200;-60
2021/05/29 00:55:27;;;;;;;1999.90;999.90;;;;;;;12.06;96.85;95779.59;5068922;28;20203;-60
2021/05/29 00:57:54;;;;;;;1999.90;999.90;;;;;;;12.06;96.48;95784.03;5069732;28;20250;-59
2021/05/29 01:00:24;;;;;;;1999.90;999.90;;;;;;;11.98;97.20;95775.09;5070265;28;20196;-61
2021/05/29 01:02:53;;;;;;;1999.90;999.90;;;;;;;12.02;97.03;95781.25;5070196;28;20580;-60
2021/05/29 01:05:21;;;;;;;1999.90;999.90;;;;;;;11.95;97.33;95777.53;5070026;28;20200;-60
2021/05/29 01:07:49;;;;;;;1999.90;999.90;;;;;;;12.00;96.92;95775.56;5070054;28;20222;-59
2021/05/29 01:10:18;;;;;;;1999.90;999.90;;;;;;;12.04;96.15;95770.53;5069704;28;20196;-59
2021/05/29 01:12:45;;;;;;;1999.90;999.90;;;;;;;11.90;97.29;95769.81;5070068;28;20655;-60
2021/05/29 01:15:13;;;;;;;1999.90;999.90;;;;;;;11.93;97.07;95774.44;5069822;28;20188;-61
2021/05/29 01:17:40;;;;;;;1999.90;999.90;;;;;;;11.93;97.13;95774.44;5069837;28;20269;-60
2021/05/29 01:20:10;;;;;;;1999.90;999.90;;;;;;;11.91;96.23;95771.34;5070066;28;20224;-61
2021/05/29 01:22:42;;;;;;;1999.90;999.90;;;;;;;11.83;96.61;95775.44;5069417;28;20232;-61
2021/05/29 01:25:14;;;;;;;1999.90;999.90;;;;;;;11.82;96.75;95784.28;5069885;28;20254;-60
2021/05/29 01:27:41;;;;;;;1999.90;999.90;;;;;;;11.81;96.36;95776.75;5069809;28;20208;-59
2021/05/29 01:30:09;;;;;;;1999.90;999.90;;;;;;;11.90;95.65;95778.41;5069975;28;20694;-59
2021/05/29 01:32:37;;;;;;;1999.90;999.90;;;;;;;11.72;96.49;95771.47;5069088;28;20639;-60
2021/05/29 01:35:08;;;;;;;1999.90;999.90;;;;;;;11.75;96.42;95776.13;5069662;28;20704;-60
2021/05/29 01:37:36;;;;;;;1999.90;999.90;;;;;;;11.74;96.76;95776.41;5069488;28;20238;-61
2021/05/29 01:40:05;;;;;;;1999.90;999.90;;;;;;;11.64;96.94;95777.38;5069541;28;20740;-60
2021/05/29 01:42:33;;;;;;;1999.90;999.90;;;;;;;11.64;96.81;95772.16;5069783;28;20275;-60
2021/05/29 01:45:02;;;;;;;1999.90;999.90;;;;;;;11.60;97.09;95766.78;5069764;28;20212;-59
2021/05/29 01:47:29;;;;;;;1999.90;999.90;;;;;;;11.48;97.83;95768.31;5069575;28;20277;-59
2021/05/29 01:49:56;;;;;;;1999.90;999.90;;;;;;;11.35;98.63;95766.53;5069427;28;20283;-60
2021/05/29 01:52:51;;;;;;;1999.90;999.90;;;;;;;11.40;98.75;95758.63;5069841;28;20281;-58
2021/05/29 01:55:21;;;;;;;1999.90;999.90;;;;;;;11.37;98.44;95759.19;5069978;28;20200;-58
2021/05/29 01:57:50;;;;;;;1999.90;999.90;;;;;;;11.16;99.51;95761.41;5069929;28;20255;-60
2021/05/29 02:00:19;;;;;;;1999.90;999.90;;;;;;;11.15;99.59;95760.66;5069254;28;20350;-59
2021/05/29 02:02:46;;;;;;;1999.90;999.90;;;;;;;11.05;100.00;95755.66;5069788;28;20287;-59
2021/05/29 02:05:16;;;;;;;1999.90;999.90;;;;;;;11.00;100.00;95763.56;5069400;28;20702;-59
2021/05/29 02:07:44;;;;;;;1999.90;999.90;;;;;;;11.00;100.00;95766.16;5072041;28;20271;-59
2021/05/29 02:10:12;;;;;;;1999.90;999.90;;;;;;;10.96;100.00;95761.81;5072690;28;20197;-59
2021/05/29 02:12:43;;;;;;;1999.90;999.90;;;;;;;10.89;100.00;95758.81;5072950;28;20291;-59
2021/05/29 02:15:12;;;;;;;1999.90;999.90;;;;;;;10.62;100.00;95762.13;5072895;28;20273;-59
2021/05/29 02:17:40;;;;;;;1999.90;999.90;;;;;;;10.60;100.00;95756.47;5072816;28;20673;-60
2021/05/29 02:20:09;;;;;;;1999.90;999.90;;;;;;;10.55;100.00;95751.38;5072652;28;20196;-61
2021/05/29 02:22:36;;;;;;;1999.90;999.90;;;;;;;10.51;100.00;95764.13;5072385;28;20240;-60
2021/05/29 02:25:03;;;;;;;1999.90;999.90;;;;;;;10.49;100.00;95760.28;5072529;28;20700;-60
2021/05/29 02:27:30;;;;;;;1999.90;999.90;;;;;;;10.47;100.00;95759.78;5072529;28;20203;-59
2021/05/29 02:29:58;;;;;;;1999.90;999.90;;;;;;;10.47;100.00;95765.00;5072940;28;20196;-60
2021/05/29 02:32:25;;;;;;;1999.90;999.90;;;;;;;10.51;100.00;95766.00;5072511;28;20287;-60
2021/05/29 02:34:52;;;;;;;1999.90;999.90;;;;;;;10.57;100.00;95772.63;5072347;28;20679;-60
2021/05/29 02:37:19;;;;;;;1999.90;999.90;;;;;;;10.62;100.00;95768.13;5072326;28;20723;-59
2021/05/29 02:39:46;;;;;;;1999.90;999.90;;;;;;;10.69;100.00;95768.53;5072221;28;20204;-60
2021/05/29 02:42:13;;;;;;;1999.90;999.90;;;;;;;10.60;100.00;95765.03;5072503;28;20193;-59
2021/05/29 02:44:39;;;;;;;1999.90;999.90;;;;;;;10.58;100.00;95761.94;5072205;28;20258;-59
2021/05/29 02:47:07;;;;;;;1999.90;999.90;;;;;;;10.53;100.00;95769.81;5072523;28;20203;-61
2021/05/29 02:49:34;;;;;;;1999.90;999.90;;;;;;;10.46;100.00;95766.06;5072295;28;20201;-60
2021/05/29 02:52:01;;;;;;;1999.90;999.90;;;;;;;10.44;100.00;95766.34;5072348;28;20257;-61
2021/05/29 02:54:28;;;;;;;1999.90;999.90;;;;;;;10.46;100.00;95773.88;5070773;28;20203;-60
2021/05/29 02:56:55;;;;;;;1999.90;999.90;;;;;;;10.39;100.00;95765.66;5071879;28;20263;-60
2021/05/29 02:59:22;;;;;;;1999.90;999.90;;;;;;;10.43;100.00;95767.41;5071915;28;20192;-59
2021/05/29 03:01:49;;;;;;;1999.90;999.90;;;;;;;10.42;100.00;95772.88;5071854;28;20203;-60
2021/05/29 03:04:16;;;;;;;1999.90;999.90;;;;;;;10.49;100.00;95770.69;5072114;28;20196;-60
2021/05/29 03:06:43;;;;;;;1999.90;999.90;;;;;;;10.49;100.00;95768.88;5071886;28;20227;-58
2021/05/29 03:09:10;;;;;;;1999.90;999.90;;;;;;;10.57;100.00;95775.22;5071732;28;20568;-59
2021/05/29 03:11:41;;;;;;;1999.90;999.90;;;;;;;10.62;100.00;95777.72;5072041;28;20231;-58
2021/05/29 03:14:08;;;;;;;1999.90;999.90;;;;;;;10.77;100.00;95786.03;5072076;28;20220;-59
2021/05/29 03:16:35;;;;;;;1999.90;999.90;;;;;;;10.97;100.00;95787.50;5071721;28;20575;-59
2021/05/29 03:19:01;;;;;;;1999.90;999.90;;;;;;;10.86;100.00;95788.75;5070562;28;20613;-59
2021/05/29 03:21:29;;;;;;;1999.90;999.90;;;;;;;10.78;100.00;95787.59;5071395;28;20658;-58
2021/05/29 03:23:56;;;;;;;1999.90;999.90;;;;;;;10.87;100.00;95792.91;5071473;28;20203;-59
2021/05/29 03:26:24;;;;;;;1999.90;999.90;;;;;;;10.87;100.00;95798.09;5071297;28;20196;-59
2021/05/29 03:28:51;;;;;;;1999.90;999.90;;;;;;;10.88;100.00;95802.25;5071331;28;20196;-60
2021/05/29 03:31:18;;;;;;;1999.90;999.90;;;;;;;10.99;100.00;95800.22;5071465;28;20200;-60
2021/05/29 03:33:45;;;;;;;1999.90;999.90;;;;;;;11.03;100.00;95796.00;5071939;28;20207;-59
2021/05/29 03:36:12;;;;;;;1999.90;999.90;;;;;;;11.04;100.00;95793.13;5071252;28;20200;-59
2021/05/29 03:38:41;;;;;;;1999.90;999.90;;;;;;;11.17;100.00;95794.94;5071316;28;20708;-59
2021/05/29 03:41:08;;;;;;;1999.90;999.90;;;;;;;11.17;100.00;95799.38;5071100;28;20200;-59
2021/05/29 03:43:36;;;;;;;1999.90;999.90;;;;;;;11.11;100.00;95793.50;5071043;28;20196;-59
2021/05/29 03:46:03;;;;;;;1999.90;999.90;;;;;;;11.13;100.00;95793.97;5071166;28;20193;-60
2021/05/29 03:48:30;;;;;;;1999.90;999.90;;;;;;;11.23;100.00;95799.00;5071029;28;20196;-59
2021/05/29 03:50:57;;;;;;;1999.90;999.90;;;;;;;11.22;100.00;95794.84;5071138;28;20196;-58
2021/05/29 03:53:24;;;;;;;1999.90;999.90;;;;;;;11.27;100.00;95798.41;5071032;28;20193;-58
2021/05/29 03:55:52;;;;;;;1999.90;999.90;;;;;;;11.35;100.00;95801.13;5070778;28;20291;-59
2021/05/29 03:58:19;;;;;;;1999.90;999.90;;;;;;;11.39;100.00;95798.69;5070611;28;20606;-59
2021/05/29 04:00:45;;;;;;;1999.90;999.90;;;;;;;11.49;100.00;95796.69;5070583;28;20580;-61
2021/05/29 04:03:15;;;;;;;1999.90;999.90;;;;;;;11.63;99.83;95792.22;5070548;28;20644;-58
2021/05/29 04:05:41;;;;;;;1999.90;999.90;;;;;;;11.66;100.00;95798.66;5070900;28;20196;-59
2021/05/29 04:08:08;;;;;;;1999.90;999.90;;;;;;;11.84;99.04;95799.63;5070798;28;20193;-59
2021/05/29 04:10:37;;;;;;;1999.90;999.90;;;;;;;11.86;98.68;95816.50;5070573;28;20195;-58
2021/05/29 04:13:05;;;;;;;1999.90;999.90;;;;;;;11.85;99.91;95809.75;5070621;28;20656;-62
2021/05/29 04:15:32;;;;;;;1999.90;999.90;;;;;;;11.95;99.92;95813.97;5070484;28;20219;-58
2021/05/29 04:17:59;;;;;;;1999.90;999.90;;;;;;;12.13;99.73;95802.63;5070267;28;20285;-60
2021/05/29 04:20:27;;;;;;;1999.90;999.90;;;;;;;12.32;98.71;95813.66;5070332;28;20203;-60
2021/05/29 04:22:54;;;;;;;1999.90;999.90;;;;;;;12.37;97.13;95805.72;5070319;28;20381;-60
2021/05/29 04:25:26;;;;;;;1999.90;999.90;;;;;;;12.69;96.63;95804.72;5070103;28;20217;-59
2021/05/29 04:27:53;;;;;;;1999.90;999.90;;;;;;;13.08;94.29;95803.19;5070320;28;20563;-60
2021/05/29 04:30:22;;;;;;;1999.90;999.90;;;;;;;13.27;92.28;95811.59;5069836;28;20212;-59
2021/05/29 04:32:50;;;;;;;1999.90;999.90;;;;;;;13.70;92.04;95814.31;5070228;28;20192;-61
2021/05/29 04:35:20;;;;;;;1999.90;999.90;;;;;;;13.99;89.30;95808.53;5070357;28;20196;-61
2021/05/29 04:37:48;;;;;;;1999.90;999.90;;;;;;;14.37;86.96;95809.47;5070279;28;20581;-60
2021/05/29 04:40:16;;;;;;;1999.90;999.90;;;;;;;14.56;85.97;95817.75;5070423;28;20715;-59
2021/05/29 04:42:43;;;;;;;1999.90;999.90;;;;;;;14.89;84.25;95817.25;5070076;28;20192;-59
2021/05/29 04:45:12;;;;;;;1999.90;999.90;;;;;;;14.78;84.00;95811.56;5070464;28;20192;-60
2021/05/29 04:47:40;;;;;;;1999.90;999.90;;;;;;;14.96;83.87;95807.06;5069985;28;20188;-60
2021/05/29 04:50:08;;;;;;;1999.90;999.90;;;;;;;14.92;83.36;95811.38;5070402;28;20192;-59
2021/05/29 04:52:35;;;;;;;1999.90;999.90;;;;;;;14.91;82.26;95815.06;5070125;28;20192;-60
2021/05/29 04:55:02;;;;;;;1999.90;999.90;;;;;;;15.07;82.18;95808.25;5069976;28;20189;-60
2021/05/29 04:57:29;;;;;;;1999.90;999.90;;;;;;;15.09;82.51;95808.72;5069848;28;20224;-60
2021/05/29 04:59:56;;;;;;;1999.90;999.90;;;;;;;15.40;82.64;95806.56;5070024;28;20651;-60
2021/05/29 05:02:23;;;;;;;1999.90;999.90;;;;;;;15.73;83.15;95808.59;5070181;28;20239;-60
2021/05/29 05:04:50;;;;;;;1999.90;999.90;;;;;;;15.90;80.03;95811.84;5070229;28;20197;-59
2021/05/29 05:07:17;;;;;;;1999.90;999.90;;;;;;;15.88;79.64;95816.66;5070091;28;20648;-61
2021/05/29 05:09:45;;;;;;;1999.90;999.90;;;;;;;15.69;80.10;95820.78;5069777;28;20189;-60
2021/05/29 05:12:12;;;;;;;1999.90;999.90;;;;;;;15.78;79.66;95818.88;5070142;28;20192;-60
2021/05/29 05:14:38;;;;;;;1999.90;999.90;;;;;;;15.72;80.83;95817.53;5070097;28;20193;-58
2021/05/29 05:17:05;;;;;;;1999.90;999.90;;;;;;;15.96;79.00;95819.53;5069928;28;20234;-60
2021/05/29 05:19:32;;;;;;;1999.90;999.90;;;;;;;16.08;80.04;95825.63;5069162;28;20503;-61
2021/05/29 05:22:00;;;;;;;1999.90;999.90;;;;;;;16.20;78.21;95811.78;5069806;28;20352;-59
2021/05/29 05:24:27;;;;;;;1999.90;999.90;;;;;;;16.51;77.99;95811.38;5069878;28;20224;-59
2021/05/29 05:26:54;;;;;;;1999.90;999.90;;;;;;;16.48;76.50;95806.78;5069718;28;20202;-60
2021/05/29 05:29:21;;;;;;;1999.90;999.90;;;;;;;16.21;77.10;95808.84;5069801;28;20197;-59
2021/05/29 05:31:47;;;;;;;1999.90;999.90;;;;;;;16.35;76.34;95809.34;5069610;28;20688;-59
2021/05/29 05:34:15;;;;;;;1999.90;999.90;;;;;;;16.29;74.13;95810.63;5069593;28;20625;-59
2021/05/29 05:36:42;;;;;;;1999.90;999.90;;;;;;;16.00;75.67;95812.56;5069473;28;20204;-59
2021/05/29 05:39:14;;;;;;;1999.90;999.90;;;;;;;16.17;76.99;95807.19;5069411;28;20193;-60
2021/05/29 05:41:41;;;;;;;1999.90;999.90;;;;;;;16.57;74.55;95810.88;5070840;28;20251;-58
2021/05/29 05:44:08;;;;;;;1999.90;999.90;;;;;;;16.62;72.41;95809.94;5073304;28;20192;-59
2021/05/29 05:46:36;;;;;;;1999.90;999.90;;;;;;;16.55;73.23;95804.41;5073361;28;20192;-59
2021/05/29 05:49:03;;;;;;;1999.90;999.90;;;;;;;16.57;73.01;95802.22;5073452;28;20195;-58
2021/05/29 05:51:31;;;;;;;1999.90;999.90;;;;;;;16.54;73.27;95794.97;5073101;28;20193;-60
2021/05/29 05:53:58;;;;;;;1999.90;999.90;;;;;;;16.66;73.23;95797.69;5073187;28;20342;-60
2021/05/29 05:56:26;;;;;;;1999.90;999.90;;;;;;;16.84;71.48;95804.28;5073184;28;20203;-60
2021/05/29 05:58:55;;;;;;;1999.90;999.90;;;;;;;17.06;71.34;95803.91;5072913;28;20321;-59
2021/05/29 06:01:22;;;;;;;1999.90;999.90;;;;;;;17.08;71.86;95803.59;5073250;28;20207;-59
2021/05/29 06:03:49;;;;;;;1999.90;999.90;;;;;;;17.38;70.61;95796.28;5072996;28;20204;-60
2021/05/29 06:06:16;;;;;;;1999.90;999.90;;;;;;;17.45;68.82;95804.34;5072970;28;20224;-60
2021/05/29 06:08:43;;;;;;;1999.90;999.90;;;;;;;17.37;69.63;95813.13;5073093;28;20223;-60
2021/05/29 06:11:10;;;;;;;1999.90;999.90;;;;;;;17.28;70.47;95801.97;5072854;28;20196;-60
2021/05/29 06:19:12;;;;;;;1999.90;999.90;;;;;;;17.53;68.97;95804.22;5072948;28;20679;-59
2021/05/29 06:21:41;;;;;;;1999.90;999.90;;;;;;;17.43;69.43;95799.44;5073005;28;20313;-60
2021/05/29 06:24:08;;;;;;;1999.90;999.90;;;;;;;17.47;69.09;95799.56;5072592;28;20223;-59
2021/05/29 06:26:35;;;;;;;1999.90;999.90;;;;;;;17.94;68.13;95812.97;5072741;28;20284;-59
2021/05/29 06:29:12;;;;;;;1999.90;999.90;;;;;;;18.41;68.48;95800.03;5072884;28;20189;-58
2021/05/29 06:31:40;;;;;;;1999.90;999.90;;;;;;;18.38;65.44;95795.44;5071626;28;20200;-61
2021/05/29 06:34:07;;;;;;;1999.90;999.90;;;;;;;18.62;66.97;95798.00;5072424;28;20239;-60
2021/05/29 06:36:34;;;;;;;1999.90;999.90;;;;;;;18.36;65.66;95801.03;5072590;28;20201;-60
2021/05/29 06:39:01;;;;;;;1999.90;999.90;;;;;;;18.35;64.97;95796.88;5072361;28;20499;-60
2021/05/29 06:41:27;;;;;;;1999.90;999.90;;;;;;;18.42;65.85;95793.69;5072200;28;20287;-59
2021/05/29 06:43:54;;;;;;;1999.90;999.90;;;;;;;18.50;65.28;95792.75;5072397;28;20207;-61
2021/05/29 06:46:23;;;;;;;1999.90;999.90;;;;;;;18.80;65.40;95791.31;5072427;28;20200;-59
2021/05/29 06:48:49;;;;;;;1999.90;999.90;;;;;;;19.15;63.15;95782.75;5072265;28;20286;-61
2021/05/29 06:51:24;;;;;;;1999.90;999.90;;;;;;;19.25;64.99;95780.38;5072310;28;20280;-59
2021/05/29 06:53:53;;;;;;;1999.90;999.90;;;;;;;19.22;64.29;95777.66;5071947;28;20664;-59
2021/05/29 06:59:04;;;;;;;1999.90;999.90;;;;;;;18.82;64.77;95765.41;5072033;28;20200;-59
2021/05/29 07:01:32;;;;;;;1999.90;999.90;;;;;;;19.14;63.22;95776.72;5071774;28;20664;-58
2021/05/29 07:03:59;;;;;;;1999.90;999.90;;;;;;;19.35;64.16;95773.81;5071804;28;20192;-59
2021/05/29 07:06:26;;;;;;;1999.90;999.90;;;;;;;19.80;63.72;95769.94;5071771;28;20207;-61
2021/05/29 07:08:56;;;;;;;1999.90;999.90;;;;;;;20.05;62.55;95779.88;5072200;28;20200;-61
2021/05/29 07:11:23;;;;;;;1999.90;999.90;;;;;;;20.17;61.37;95777.09;5072093;28;20197;-61
2021/05/29 07:13:50;;;;;;;1999.90;999.90;;;;;;;19.89;60.27;95776.53;5071830;28;20220;-61
2021/05/29 07:16:17;;;;;;;1999.90;999.90;;;;;;;19.77;61.63;95772.13;5071674;28;20193;-62
2021/05/29 07:18:45;;;;;;;1999.90;999.90;;;;;;;19.61;63.44;95765.38;5071481;28;20283;-59
2021/05/29 07:21:12;;;;;;;1999.90;999.90;;;;;;;19.62;61.70;95770.31;5071523;28;20200;-59
2021/05/29 07:23:39;;;;;;;1999.90;999.90;;;;;;;19.87;62.12;95768.22;5071186;28;20260;-60
2021/05/29 07:26:06;;;;;;;1999.90;999.90;;;;;;;20.03;61.55;95770.78;5071306;28;20217;-60
2021/05/29 07:28:33;;;;;;;1999.90;999.90;;;;;;;20.00;60.74;95766.19;5071424;28;20196;-61
2021/05/29 07:31:00;;;;;;;1999.90;999.90;;;;;;;20.06;60.16;95764.81;5071498;28;20215;-61
2021/05/29 07:33:27;;;;;;;1999.90;999.90;;;;;;;20.12;61.43;95752.88;5071232;28;20239;-59
2021/05/29 07:35:56;;;;;;;1999.90;999.90;;;;;;;20.13;59.50;95757.03;5071362;28;20204;-60
2021/05/29 07:38:23;;;;;;;1999.90;999.90;;;;;;;19.99;61.15;95754.88;5071004;28;20236;-60
2021/05/29 07:40:50;;;;;;;1999.90;999.90;;;;;;;20.28;59.80;95750.91;5071308;28;20271;-60
2021/05/29 07:43:17;;;;;;;1999.90;999.90;;;;;;;20.36;59.94;95757.91;5071263;28;20200;-61
2021/05/29 07:45:44;;;;;;;1999.90;999.90;;;;;;;20.59;61.09;95739.44;5071030;28;20279;-61
2021/05/29 07:48:12;;;;;;;1999.90;999.90;;;;;;;20.80;58.81;95744.34;5070954;28;20189;-61
2021/05/29 07:50:57;;;;;;;1999.90;999.90;;;;;;;20.67;60.07;95741.13;5070982;28;20637;-61
2021/05/29 07:53:28;;;;;;;1999.90;999.90;;;;;;;21.22;59.62;95731.06;5071176;28;20590;-60
2021/05/29 07:55:56;;;;;;;1999.90;999.90;;;;;;;21.35;57.88;95732.38;5070962;28;20201;-61
2021/05/29 07:58:23;;;;;;;1999.90;999.90;;;;;;;21.09;57.08;95729.69;5070714;28;20747;-60
2021/05/29 08:00:51;;;;;;;1999.90;999.90;;;;;;;21.29;60.59;95724.00;5070725;28;20228;-59
2021/05/29 08:03:20;;;;;;;1999.90;999.90;;;;;;;21.16;55.69;95719.28;5071041;28;20192;-60
2021/05/29 08:05:49;;;;;;;1999.90;999.90;;;;;;;20.66;56.95;95707.13;5070573;28;20201;-59
2021/05/29 08:08:16;;;;;;;1999.90;999.90;;;;;;;20.58;57.72;95714.16;5070554;28;20738;-61
2021/05/29 08:10:45;;;;;;;1999.90;999.90;;;;;;;20.39;57.55;95714.94;5070593;28;20197;-58
2021/05/29 08:13:12;;;;;;;1999.90;999.90;;;;;;;20.46;58.19;95704.53;5070439;28;20200;-60
2021/05/29 08:15:39;;;;;;;1999.90;999.90;;;;;;;20.67;57.48;95698.84;5070593;28;20216;-60
2021/05/29 08:18:07;;;;;;;1999.90;999.90;;;;;;;21.10;55.35;95702.91;5070647;28;20232;-59
2021/05/29 08:20:33;;;;;;;1999.90;999.90;;;;;;;21.18;52.72;95696.63;5070492;28;20779;-60
2021/05/29 08:23:00;;;;;;;1999.90;999.90;;;;;;;21.48;58.41;95697.44;5070553;28;20729;-60
2021/05/29 08:25:27;;;;;;;1999.90;999.90;;;;;;;21.57;55.21;95702.47;5070191;28;20299;-59
2021/05/29 08:27:55;;;;;;;1999.90;999.90;;;;;;;21.58;54.11;95698.69;5070400;28;20271;-60
2021/05/29 08:30:22;;;;;;;1999.90;999.90;;;;;;;21.43;53.30;95702.28;5070206;28;20663;-59
2021/05/29 08:32:49;;;;;;;1999.90;999.90;;;;;;;21.52;54.28;95699.41;5070700;28;20240;-60
2021/05/29 08:35:16;;;;;;;1999.90;999.90;;;;;;;22.14;54.17;95693.34;5070393;28;20204;-61
2021/05/29 08:37:44;;;;;;;1999.90;999.90;;;;;;;22.54;52.23;95692.63;5070145;28;20216;-62
2021/05/29 08:40:13;;;;;;;1999.90;999.90;;;;;;;22.27;50.98;95694.63;5070360;28;20224;-61
2021/05/29 08:42:39;;;;;;;1999.90;999.90;;;;;;;22.04;52.51;95688.72;5070213;28;20196;-60
2021/05/29 08:45:08;;;;;;;1999.90;999.90;;;;;;;22.35;51.23;95700.78;5070397;28;20196;-59
2021/05/29 08:47:36;;;;;;;1999.90;999.90;;;;;;;22.60;52.29;95687.75;5070462;28;20196;-61
2021/05/29 08:50:03;;;;;;;1999.90;999.90;;;;;;;23.14;51.19;95690.47;5070079;28;20287;-57
2021/05/29 08:52:36;;;;;;;1999.90;999.90;;;;;;;22.71;47.29;95692.03;5070077;28;20276;-59
2021/05/29 08:55:06;;;;;;;1999.90;999.90;;;;;;;22.70;48.00;95679.13;5070056;28;20210;-58
2021/05/29 08:57:33;;;;;;;1999.90;999.90;;;;;;;23.08;49.50;95688.53;5069781;28;20220;-60
2021/05/29 09:00:00;;;;;;;1999.90;999.90;;;;;;;23.46;46.41;95679.34;5069897;28;20198;-60
2021/05/29 09:02:28;;;;;;;1999.90;999.90;;;;;;;23.66;46.58;95682.47;5069832;28;20196;-59
2021/05/29 09:05:07;;;;;;;1999.90;999.90;;;;;;;23.26;44.30;95675.41;5069807;28;20206;-58
2021/05/29 09:07:34;;;;;;;1999.90;999.90;;;;;;;22.98;47.24;95674.06;5069902;28;20197;-60
2021/05/29 09:10:22;;;;;;;1999.90;999.90;;;;;;;22.93;47.09;95665.69;5070169;28;20303;-61
2021/05/29 09:13:06;;;;;;;1999.90;999.90;;;;;;;23.20;46.85;95672.34;5070159;28;20196;-59
2021/05/29 09:15:44;;;;;;;1999.90;999.90;;;;;;;23.00;45.19;95669.19;5070048;28;20227;-59
2021/05/29 09:18:26;;;;;;;1999.90;999.90;;;;;;;22.42;47.02;95662.97;5073701;28;20327;-61
2021/05/29 09:20:53;;;;;;;1999.90;999.90;;;;;;;22.53;47.09;95663.84;5074151;28;20292;-59
2021/05/29 09:23:20;;;;;;;1999.90;999.90;;;;;;;23.14;47.22;95660.56;5073562;28;20726;-60
2021/05/29 09:26:01;;;;;;;1999.90;999.90;;;;;;;23.56;45.30;95652.84;5073600;28;20710;-59
2021/05/29 09:28:28;;;;;;;1999.90;999.90;;;;;;;23.86;46.20;95652.56;5071431;28;20723;-60
2021/05/29 09:30:55;;;;;;;1999.90;999.90;;;;;;;24.17;45.47;95653.06;5073861;28;20196;-60
2021/05/29 09:33:25;;;;;;;1999.90;999.90;;;;;;;24.21;42.16;95651.22;5073747;28;20267;-61
2021/05/29 09:35:57;;;;;;;1999.90;999.90;;;;;;;23.55;42.54;95647.94;5073496;28;20223;-61
2021/05/29 09:38:24;;;;;;;1999.90;999.90;;;;;;;23.17;44.91;95652.59;5073636;28;20315;-61
2021/05/29 09:40:53;;;;;;;1999.90;999.90;;;;;;;22.89;45.45;95652.44;5073685;28;20200;-60
2021/05/29 09:43:21;;;;;;;1999.90;999.90;;;;;;;23.20;47.38;95647.72;5073732;28;20189;-62
2021/05/29 09:45:58;;;;;;;1999.90;999.90;;;;;;;23.03;45.35;95655.19;5073613;28;20266;-59
2021/05/29 09:48:26;;;;;;;1999.90;999.90;;;;;;;23.03;44.93;95647.22;5073933;28;20196;-60
2021/05/29 09:51:08;;;;;;;1999.90;999.90;;;;;;;22.83;43.90;95647.84;5073462;28;20207;-59
2021/05/29 09:53:38;;;;;;;1999.90;999.90;;;;;;;22.79;45.20;95639.88;5073313;28;20250;-61
2021/05/29 09:56:06;;;;;;;1999.90;999.90;;;;;;;22.99;45.93;95646.44;5073490;28;20288;-60
2021/05/29 09:59:05;;;;;;;1999.90;999.90;;;;;;;22.73;45.19;95633.38;5073184;28;20220;-60
2021/05/29 10:01:36;;;;;;;1999.90;999.90;;;;;;;23.14;47.11;95637.44;5070718;28;20201;-60
2021/05/29 10:04:04;;;;;;;1999.90;999.90;;;;;;;23.39;43.67;95631.50;5073395;28;20200;-59
2021/05/29 10:06:32;;;;;;;1999.90;999.90;;;;;;;23.23;44.30;95633.69;5073346;28;20699;-61
2021/05/29 10:08:59;;;;;;;1999.90;999.90;;;;;;;23.34;43.59;95626.56;5073113;28;20678;-61
2021/05/29 10:11:28;;;;;;;1999.90;999.90;;;;;;;23.27;43.60;95629.16;5073295;28;20333;-61
2021/05/29 10:13:56;;;;;;;1999.90;999.90;;;;;;;23.41;44.16;95631.91;5073103;28;20196;-61
2021/05/29 10:16:24;;;;;;;1999.90;999.90;;;;;;;23.32;43.96;95620.84;5072640;28;20280;-60
2021/05/29 10:18:53;;;;;;;1999.90;999.90;;;;;;;23.79;43.42;95634.00;5072676;28;20232;-60
2021/05/29 10:21:22;;;;;;;1999.90;999.90;;;;;;;23.83;42.51;95626.03;5072784;28;20719;-62
2021/05/29 10:23:49;;;;;;;1999.90;999.90;;;;;;;23.68;41.77;95622.56;5072683;28;20725;-60
2021/05/29 10:26:18;;;;;;;1999.90;999.90;;;;;;;23.51;42.18;95618.69;5072593;28;20660;-60
2021/05/29 10:28:46;;;;;;;1999.90;999.90;;;;;;;23.62;43.10;95624.06;5072094;28;20199;-60
2021/05/29 10:31:14;;;;;;;1999.90;999.90;;;;;;;24.12;43.88;95630.28;5072505;28;20188;-60
2021/05/29 10:33:41;;;;;;;1999.90;999.90;;;;;;;23.79;41.29;95626.03;5072602;28;20192;-59
2021/05/29 10:36:09;;;;;;;1999.90;999.90;;;;;;;23.78;43.13;95624.50;5072176;28;20204;-60
2021/05/29 10:38:52;;;;;;;1999.90;999.90;;;;;;;23.66;42.35;95626.75;5072481;28;20232;-59
2021/05/29 10:41:51;;;;;;;1999.90;999.90;;;;;;;23.31;42.17;95624.66;5070922;28;20597;-60
2021/05/29 10:44:41;;;;;;;1999.90;999.90;;;;;;;23.56;40.38;95628.22;5072347;28;20200;-61
2021/05/29 10:47:17;;;;;;;1999.90;999.90;;;;;;;23.78;43.07;95623.75;5072402;28;20295;-60
2021/05/29 10:50:06;;;;;;;1999.90;999.90;;;;;;;23.95;41.53;95631.78;5072311;28;20200;-61
2021/05/29 10:52:52;;;;;;;1999.90;999.90;;;;;;;24.56;41.50;95624.66;5067666;28;20280;-61
2021/05/29 10:55:24;;;;;;;1999.90;999.90;;;;;;;24.39;38.66;95628.84;5072092;28;20768;-61
2021/05/29 10:57:53;;;;;;;1999.90;999.90;;;;;;;24.22;38.56;95626.91;5071764;28;20228;-60
2021/05/29 11:00:51;;;;;;;1999.90;999.90;;;;;;;24.22;39.15;95618.94;5072133;28;20201;-59
2021/05/29 11:03:24;;;;;;;1999.90;999.90;;;;;;;24.52;40.14;95621.25;5072043;28;20189;-60
2021/05/29 11:05:54;;;;;;;1999.90;999.90;;;;;;;24.44;38.31;95620.50;5071766;28;20188;-60
2021/05/29 11:08:51;;;;;;;1999.90;999.90;;;;;;;24.42;40.73;95616.69;5071858;28;20196;-59